sensor_id;sensor_type;location;lat;lon;timestamp;P1;durP1;ratioP1;P2;durP2;ratioP2
41480;SDS011;27217;51.220;5.308;2023-04-24T00:00:19;0.10;;;0.10;;
41480;SDS011;27217;51.220;5.308;2023-04-24T00:02:45;0.43;;;0.43;;
41480;SDS011;27217;51.220;5.308;2023-04-24T00:05:12;0.22;;;0.22;;
41480;SDS011;27217;51.220;5.308;2023-04-24T00:07:40;0.52;;;0.52;;
41480;SDS011;27217;51.220;5.308;2023-04-24T00:10:07;0.10;;;0.10;;
41480;SDS011;27217;51.220;5.308;2023-04-24T00:12:34;0.52;;;0.52;;
41480;SDS011;27217;51.220;5.308;2023-04-24T00:15:00;11.70;;;3.20;;
41480;SDS011;27217;51.220;5.308;2023-04-24T00:17:26;0.10;;;0.10;;
41480;SDS011;27217;51.220;5.308;2023-04-24T00:19:52;1.13;;;0.47;;
41480;SDS011;27217;51.220;5.308;2023-04-24T00:22:26;0.10;;;0.10;;
41480;SDS011;27217;51.220;5.308;2023-04-24T00:24:53;0.35;;;0.35;;
41480;SDS011;27217;51.220;5.308;2023-04-24T00:27:20;3.92;;;0.95;;
41480;SDS011;27217;51.220;5.308;2023-04-24T00:29:46;0.20;;;0.20;;
41480;SDS011;27217;51.220;5.308;2023-04-24T00:32:12;0.10;;;0.10;;
41480;SDS011;27217;51.220;5.308;2023-04-24T00:34:38;5.82;;;1.92;;
41480;SDS011;27217;51.220;5.308;2023-04-24T00:37:05;2.63;;;1.33;;
41480;SDS011;27217;51.220;5.308;2023-04-24T00:39:31;0.20;;;0.20;;
41480;SDS011;27217;51.220;5.308;2023-04-24T00:41:57;0.10;;;0.10;;
41480;SDS011;27217;51.220;5.308;2023-04-24T00:44:23;0.43;;;0.43;;
41480;SDS011;27217;51.220;5.308;2023-04-24T00:46:49;0.10;;;0.10;;
41480;SDS011;27217;51.220;5.308;2023-04-24T00:49:20;1.10;;;0.95;;
41480;SDS011;27217;51.220;5.308;2023-04-24T00:51:46;0.40;;;0.40;;
41480;SDS011;27217;51.220;5.308;2023-04-24T00:54:13;0.10;;;0.10;;
41480;SDS011;27217;51.220;5.308;2023-04-24T00:56:39;0.85;;;0.85;;
41480;SDS011;27217;51.220;5.308;2023-04-24T00:59:06;0.10;;;0.10;;
41480;SDS011;27217;51.220;5.308;2023-04-24T01:01:32;2.63;;;0.75;;
41480;SDS011;27217;51.220;5.308;2023-04-24T01:03:58;0.45;;;0.45;;
41480;SDS011;27217;51.220;5.308;2023-04-24T01:06:26;5.65;;;1.70;;
41480;SDS011;27217;51.220;5.308;2023-04-24T01:08:54;0.17;;;0.17;;
41480;SDS011;27217;51.220;5.308;2023-04-24T01:11:23;0.73;;;0.73;;
41480;SDS011;27217;51.220;5.308;2023-04-24T01:13:51;0.20;;;0.20;;
41480;SDS011;27217;51.220;5.308;2023-04-24T01:16:17;0.30;;;0.30;;
41480;SDS011;27217;51.220;5.308;2023-04-24T01:18:45;6.18;;;1.00;;
41480;SDS011;27217;51.220;5.308;2023-04-24T01:21:11;0.10;;;0.10;;
41480;SDS011;27217;51.220;5.308;2023-04-24T01:23:41;0.98;;;0.98;;
41480;SDS011;27217;51.220;5.308;2023-04-24T01:26:08;0.30;;;0.30;;
41480;SDS011;27217;51.220;5.308;2023-04-24T01:28:34;0.20;;;0.20;;
41480;SDS011;27217;51.220;5.308;2023-04-24T01:31:01;0.20;;;0.20;;
41480;SDS011;27217;51.220;5.308;2023-04-24T01:33:26;0.00;;;0.00;;
41480;SDS011;27217;51.220;5.308;2023-04-24T01:35:52;0.10;;;0.10;;
41480;SDS011;27217;51.220;5.308;2023-04-24T01:38:19;0.20;;;0.20;;
41480;SDS011;27217;51.220;5.308;2023-04-24T01:40:45;0.30;;;0.30;;
41480;SDS011;27217;51.220;5.308;2023-04-24T01:43:12;0.00;;;0.00;;
41480;SDS011;27217;51.220;5.308;2023-04-24T01:45:38;1.75;;;0.60;;
41480;SDS011;27217;51.220;5.308;2023-04-24T01:48:04;0.32;;;0.32;;
41480;SDS011;27217;51.220;5.308;2023-04-24T01:50:30;0.35;;;0.35;;
41480;SDS011;27217;51.220;5.308;2023-04-24T01:52:55;0.03;;;0.03;;
41480;SDS011;27217;51.220;5.308;2023-04-24T01:55:21;0.32;;;0.32;;
41480;SDS011;27217;51.220;5.308;2023-04-24T01:57:47;0.10;;;0.10;;
41480;SDS011;27217;51.220;5.308;2023-04-24T02:00:14;0.10;;;0.10;;
41480;SDS011;27217;51.220;5.308;2023-04-24T02:02:40;0.20;;;0.20;;
41480;SDS011;27217;51.220;5.308;2023-04-24T02:05:07;31.45;;;15.38;;
41480;SDS011;27217;51.220;5.308;2023-04-24T02:07:33;28.58;;;14.52;;
41480;SDS011;27217;51.220;5.308;2023-04-24T02:09:59;33.05;;;15.98;;
41480;SDS011;27217;51.220;5.308;2023-04-24T02:12:26;33.05;;;16.13;;
41480;SDS011;27217;51.220;5.308;2023-04-24T02:14:51;26.27;;;12.70;;
41480;SDS011;27217;51.220;5.308;2023-04-24T02:17:17;35.45;;;16.05;;
41480;SDS011;27217;51.220;5.308;2023-04-24T02:19:44;31.13;;;13.73;;
41480;SDS011;27217;51.220;5.308;2023-04-24T02:22:10;28.33;;;14.30;;
41480;SDS011;27217;51.220;5.308;2023-04-24T02:24:37;27.10;;;13.93;;
41480;SDS011;27217;51.220;5.308;2023-04-24T02:27:03;30.45;;;15.18;;
41480;SDS011;27217;51.220;5.308;2023-04-24T02:29:32;32.65;;;15.45;;
41480;SDS011;27217;51.220;5.308;2023-04-24T02:31:58;34.53;;;15.80;;
41480;SDS011;27217;51.220;5.308;2023-04-24T02:34:24;28.02;;;14.57;;
41480;SDS011;27217;51.220;5.308;2023-04-24T02:36:50;33.05;;;15.05;;
41480;SDS011;27217;51.220;5.308;2023-04-24T02:39:18;28.05;;;14.57;;
41480;SDS011;27217;51.220;5.308;2023-04-24T02:41:44;28.20;;;12.90;;
41480;SDS011;27217;51.220;5.308;2023-04-24T02:44:10;24.10;;;13.23;;
41480;SDS011;27217;51.220;5.308;2023-04-24T02:46:36;32.47;;;13.80;;
41480;SDS011;27217;51.220;5.308;2023-04-24T02:49:02;23.48;;;14.30;;
41480;SDS011;27217;51.220;5.308;2023-04-24T02:51:28;21.80;;;12.82;;
41480;SDS011;27217;51.220;5.308;2023-04-24T02:53:54;29.27;;;13.70;;
41480;SDS011;27217;51.220;5.308;2023-04-24T02:56:20;24.63;;;14.77;;
41480;SDS011;27217;51.220;5.308;2023-04-24T02:58:46;33.17;;;12.82;;
41480;SDS011;27217;51.220;5.308;2023-04-24T03:01:11;27.90;;;13.27;;
41480;SDS011;27217;51.220;5.308;2023-04-24T03:03:38;28.80;;;11.60;;
41480;SDS011;27217;51.220;5.308;2023-04-24T03:06:05;22.30;;;12.45;;
41480;SDS011;27217;51.220;5.308;2023-04-24T03:08:34;23.88;;;12.27;;
41480;SDS011;27217;51.220;5.308;2023-04-24T03:11:00;21.83;;;11.98;;
41480;SDS011;27217;51.220;5.308;2023-04-24T03:13:26;24.48;;;13.23;;
41480;SDS011;27217;51.220;5.308;2023-04-24T03:15:52;25.25;;;12.93;;
41480;SDS011;27217;51.220;5.308;2023-04-24T03:18:22;32.05;;;12.85;;
41480;SDS011;27217;51.220;5.308;2023-04-24T03:20:48;16.67;;;10.40;;
41480;SDS011;27217;51.220;5.308;2023-04-24T03:23:13;23.13;;;11.20;;
41480;SDS011;27217;51.220;5.308;2023-04-24T03:25:40;27.38;;;10.88;;
41480;SDS011;27217;51.220;5.308;2023-04-24T03:28:07;22.25;;;11.75;;
41480;SDS011;27217;51.220;5.308;2023-04-24T03:30:34;17.50;;;9.65;;
41480;SDS011;27217;51.220;5.308;2023-04-24T03:33:00;21.00;;;10.10;;
41480;SDS011;27217;51.220;5.308;2023-04-24T03:35:25;17.70;;;8.27;;
41480;SDS011;27217;51.220;5.308;2023-04-24T03:37:52;23.77;;;8.30;;
41480;SDS011;27217;51.220;5.308;2023-04-24T03:40:18;17.20;;;8.98;;
41480;SDS011;27217;51.220;5.308;2023-04-24T03:42:44;17.02;;;8.80;;
41480;SDS011;27217;51.220;5.308;2023-04-24T03:45:10;14.93;;;8.43;;
41480;SDS011;27217;51.220;5.308;2023-04-24T03:47:36;16.25;;;9.25;;
41480;SDS011;27217;51.220;5.308;2023-04-24T03:50:02;18.60;;;9.55;;
41480;SDS011;27217;51.220;5.308;2023-04-24T03:52:28;19.38;;;10.00;;
41480;SDS011;27217;51.220;5.308;2023-04-24T03:54:54;14.85;;;8.82;;
41480;SDS011;27217;51.220;5.308;2023-04-24T03:57:20;16.70;;;9.45;;
41480;SDS011;27217;51.220;5.308;2023-04-24T03:59:46;21.17;;;10.40;;
41480;SDS011;27217;51.220;5.308;2023-04-24T04:02:12;19.27;;;10.90;;
41480;SDS011;27217;51.220;5.308;2023-04-24T04:04:38;20.08;;;12.15;;
41480;SDS011;27217;51.220;5.308;2023-04-24T04:07:06;18.75;;;11.60;;
41480;SDS011;27217;51.220;5.308;2023-04-24T04:09:32;22.35;;;11.43;;
41480;SDS011;27217;51.220;5.308;2023-04-24T04:11:58;21.45;;;12.57;;
41480;SDS011;27217;51.220;5.308;2023-04-24T04:14:25;22.92;;;12.68;;
41480;SDS011;27217;51.220;5.308;2023-04-24T04:16:52;29.55;;;13.65;;
41480;SDS011;27217;51.220;5.308;2023-04-24T04:19:18;25.35;;;13.80;;
41480;SDS011;27217;51.220;5.308;2023-04-24T04:21:44;27.00;;;12.65;;
41480;SDS011;27217;51.220;5.308;2023-04-24T04:24:10;23.42;;;13.55;;
41480;SDS011;27217;51.220;5.308;2023-04-24T04:26:37;32.22;;;13.43;;
41480;SDS011;27217;51.220;5.308;2023-04-24T04:29:03;30.67;;;14.95;;
41480;SDS011;27217;51.220;5.308;2023-04-24T04:31:29;22.83;;;12.63;;
41480;SDS011;27217;51.220;5.308;2023-04-24T04:33:55;20.42;;;9.30;;
41480;SDS011;27217;51.220;5.308;2023-04-24T04:36:21;0.03;;;0.03;;
41480;SDS011;27217;51.220;5.308;2023-04-24T04:38:48;1.98;;;0.75;;
41480;SDS011;27217;51.220;5.308;2023-04-24T04:41:14;0.38;;;0.38;;
41480;SDS011;27217;51.220;5.308;2023-04-24T04:43:41;0.00;;;0.00;;
41480;SDS011;27217;51.220;5.308;2023-04-24T04:46:07;0.08;;;0.08;;
41480;SDS011;27217;51.220;5.308;2023-04-24T04:48:35;0.10;;;0.10;;
41480;SDS011;27217;51.220;5.308;2023-04-24T04:51:01;0.00;;;0.00;;
41480;SDS011;27217;51.220;5.308;2023-04-24T04:53:28;0.00;;;0.00;;
41480;SDS011;27217;51.220;5.308;2023-04-24T04:55:54;0.65;;;0.65;;
41480;SDS011;27217;51.220;5.308;2023-04-24T04:58:19;0.35;;;0.35;;
41480;SDS011;27217;51.220;5.308;2023-04-24T05:00:51;0.00;;;0.00;;
41480;SDS011;27217;51.220;5.308;2023-04-24T05:03:17;6.35;;;2.72;;
41480;SDS011;27217;51.220;5.308;2023-04-24T05:05:43;0.10;;;0.10;;
41480;SDS011;27217;51.220;5.308;2023-04-24T05:08:09;0.10;;;0.10;;
41480;SDS011;27217;51.220;5.308;2023-04-24T05:10:35;0.30;;;0.30;;
41480;SDS011;27217;51.220;5.308;2023-04-24T05:13:02;0.20;;;0.20;;
41480;SDS011;27217;51.220;5.308;2023-04-24T05:15:29;0.00;;;0.00;;
41480;SDS011;27217;51.220;5.308;2023-04-24T05:17:55;0.10;;;0.10;;
41480;SDS011;27217;51.220;5.308;2023-04-24T05:20:21;0.85;;;0.85;;
41480;SDS011;27217;51.220;5.308;2023-04-24T05:22:46;0.10;;;0.10;;
41480;SDS011;27217;51.220;5.308;2023-04-24T05:25:12;0.10;;;0.10;;
41480;SDS011;27217;51.220;5.308;2023-04-24T05:27:38;0.55;;;0.55;;
41480;SDS011;27217;51.220;5.308;2023-04-24T05:30:04;0.10;;;0.10;;
41480;SDS011;27217;51.220;5.308;2023-04-24T05:32:31;0.00;;;0.00;;
41480;SDS011;27217;51.220;5.308;2023-04-24T05:34:56;0.00;;;0.00;;
41480;SDS011;27217;51.220;5.308;2023-04-24T05:37:22;0.00;;;0.00;;
41480;SDS011;27217;51.220;5.308;2023-04-24T05:39:52;0.00;;;0.00;;
41480;SDS011;27217;51.220;5.308;2023-04-24T05:42:18;0.00;;;0.00;;
41480;SDS011;27217;51.220;5.308;2023-04-24T05:44:44;0.00;;;0.00;;
41480;SDS011;27217;51.220;5.308;2023-04-24T05:47:10;0.10;;;0.10;;
41480;SDS011;27217;51.220;5.308;2023-04-24T05:49:36;0.10;;;0.10;;
41480;SDS011;27217;51.220;5.308;2023-04-24T05:52:01;0.00;;;0.00;;
41480;SDS011;27217;51.220;5.308;2023-04-24T05:54:29;0.38;;;0.38;;
41480;SDS011;27217;51.220;5.308;2023-04-24T05:56:55;0.10;;;0.10;;
41480;SDS011;27217;51.220;5.308;2023-04-24T05:59:21;0.10;;;0.10;;
41480;SDS011;27217;51.220;5.308;2023-04-24T06:01:47;0.00;;;0.00;;
41480;SDS011;27217;51.220;5.308;2023-04-24T06:04:12;0.00;;;0.00;;
41480;SDS011;27217;51.220;5.308;2023-04-24T06:06:38;0.30;;;0.30;;
41480;SDS011;27217;51.220;5.308;2023-04-24T06:09:05;0.00;;;0.00;;
41480;SDS011;27217;51.220;5.308;2023-04-24T06:11:30;6.05;;;1.65;;
41480;SDS011;27217;51.220;5.308;2023-04-24T06:13:56;0.00;;;0.00;;
41480;SDS011;27217;51.220;5.308;2023-04-24T06:16:22;0.20;;;0.20;;
41480;SDS011;27217;51.220;5.308;2023-04-24T06:18:48;0.00;;;0.00;;
41480;SDS011;27217;51.220;5.308;2023-04-24T06:21:16;0.00;;;0.00;;
41480;SDS011;27217;51.220;5.308;2023-04-24T06:23:42;0.20;;;0.20;;
41480;SDS011;27217;51.220;5.308;2023-04-24T06:26:08;0.10;;;0.10;;
41480;SDS011;27217;51.220;5.308;2023-04-24T06:28:34;0.00;;;0.00;;
41480;SDS011;27217;51.220;5.308;2023-04-24T06:31:00;0.00;;;0.00;;
41480;SDS011;27217;51.220;5.308;2023-04-24T06:33:26;0.10;;;0.10;;
41480;SDS011;27217;51.220;5.308;2023-04-24T06:41:20;2.42;;;0.75;;
41480;SDS011;27217;51.220;5.308;2023-04-24T06:43:46;0.10;;;0.10;;
41480;SDS011;27217;51.220;5.308;2023-04-24T06:46:12;0.10;;;0.10;;
41480;SDS011;27217;51.220;5.308;2023-04-24T06:48:38;0.85;;;0.85;;
41480;SDS011;27217;51.220;5.308;2023-04-24T06:51:04;0.55;;;0.55;;
41480;SDS011;27217;51.220;5.308;2023-04-24T06:53:30;1.40;;;0.63;;
41480;SDS011;27217;51.220;5.308;2023-04-24T06:55:56;3.08;;;1.45;;
41480;SDS011;27217;51.220;5.308;2023-04-24T06:58:22;3.97;;;2.40;;
41480;SDS011;27217;51.220;5.308;2023-04-24T07:00:49;0.10;;;0.10;;
41480;SDS011;27217;51.220;5.308;2023-04-24T07:03:14;0.00;;;0.00;;
41480;SDS011;27217;51.220;5.308;2023-04-24T07:05:40;3.30;;;1.65;;
41480;SDS011;27217;51.220;5.308;2023-04-24T07:08:07;0.38;;;0.38;;
41480;SDS011;27217;51.220;5.308;2023-04-24T07:10:36;0.17;;;0.17;;
41480;SDS011;27217;51.220;5.308;2023-04-24T07:13:02;0.15;;;0.15;;
41480;SDS011;27217;51.220;5.308;2023-04-24T07:15:28;0.10;;;0.10;;
41480;SDS011;27217;51.220;5.308;2023-04-24T07:17:54;0.03;;;0.03;;
41480;SDS011;27217;51.220;5.308;2023-04-24T07:20:20;0.10;;;0.10;;
41480;SDS011;27217;51.220;5.308;2023-04-24T07:22:46;0.10;;;0.10;;
41480;SDS011;27217;51.220;5.308;2023-04-24T07:25:13;0.47;;;0.45;;
41480;SDS011;27217;51.220;5.308;2023-04-24T07:27:39;0.10;;;0.10;;
41480;SDS011;27217;51.220;5.308;2023-04-24T07:30:04;1.20;;;1.17;;
41480;SDS011;27217;51.220;5.308;2023-04-24T07:32:53;0.20;;;0.20;;
41480;SDS011;27217;51.220;5.308;2023-04-24T07:35:20;2.63;;;0.85;;
41480;SDS011;27217;51.220;5.308;2023-04-24T07:37:45;0.00;;;0.00;;
41480;SDS011;27217;51.220;5.308;2023-04-24T07:40:12;1.83;;;1.17;;
41480;SDS011;27217;51.220;5.308;2023-04-24T07:42:38;6.93;;;1.17;;
41480;SDS011;27217;51.220;5.308;2023-04-24T07:45:05;0.68;;;0.68;;
41480;SDS011;27217;51.220;5.308;2023-04-24T07:47:32;0.22;;;0.22;;
41480;SDS011;27217;51.220;5.308;2023-04-24T07:50:09;0.52;;;0.52;;
41480;SDS011;27217;51.220;5.308;2023-04-24T07:52:41;0.10;;;0.10;;
41480;SDS011;27217;51.220;5.308;2023-04-24T07:55:10;0.90;;;0.90;;
41480;SDS011;27217;51.220;5.308;2023-04-24T07:57:36;0.52;;;0.52;;
41480;SDS011;27217;51.220;5.308;2023-04-24T08:00:03;0.10;;;0.10;;
41480;SDS011;27217;51.220;5.308;2023-04-24T08:02:30;1.13;;;1.02;;
41480;SDS011;27217;51.220;5.308;2023-04-24T08:04:56;0.10;;;0.10;;
41480;SDS011;27217;51.220;5.308;2023-04-24T08:07:22;0.10;;;0.10;;
41480;SDS011;27217;51.220;5.308;2023-04-24T08:09:48;1.80;;;0.63;;
41480;SDS011;27217;51.220;5.308;2023-04-24T08:12:14;0.10;;;0.10;;
41480;SDS011;27217;51.220;5.308;2023-04-24T08:14:40;0.10;;;0.10;;
41480;SDS011;27217;51.220;5.308;2023-04-24T08:17:06;0.50;;;0.50;;
41480;SDS011;27217;51.220;5.308;2023-04-24T08:19:31;1.67;;;1.58;;
41480;SDS011;27217;51.220;5.308;2023-04-24T08:21:57;0.47;;;0.47;;
41480;SDS011;27217;51.220;5.308;2023-04-24T08:24:23;0.20;;;0.20;;
41480;SDS011;27217;51.220;5.308;2023-04-24T08:26:56;0.20;;;0.20;;
41480;SDS011;27217;51.220;5.308;2023-04-24T08:29:22;0.65;;;0.65;;
41480;SDS011;27217;51.220;5.308;2023-04-24T08:31:49;0.43;;;0.43;;
41480;SDS011;27217;51.220;5.308;2023-04-24T08:34:15;0.10;;;0.10;;
41480;SDS011;27217;51.220;5.308;2023-04-24T08:36:41;0.40;;;0.40;;
41480;SDS011;27217;51.220;5.308;2023-04-24T08:39:06;0.35;;;0.35;;
41480;SDS011;27217;51.220;5.308;2023-04-24T08:41:33;0.10;;;0.10;;
41480;SDS011;27217;51.220;5.308;2023-04-24T08:44:00;0.75;;;0.75;;
41480;SDS011;27217;51.220;5.308;2023-04-24T08:46:27;0.10;;;0.10;;
41480;SDS011;27217;51.220;5.308;2023-04-24T08:48:55;0.30;;;0.30;;
41480;SDS011;27217;51.220;5.308;2023-04-24T08:51:21;0.10;;;0.10;;
41480;SDS011;27217;51.220;5.308;2023-04-24T08:53:48;0.52;;;0.52;;
41480;SDS011;27217;51.220;5.308;2023-04-24T08:56:16;0.10;;;0.10;;
41480;SDS011;27217;51.220;5.308;2023-04-24T08:58:42;0.10;;;0.10;;
41480;SDS011;27217;51.220;5.308;2023-04-24T09:01:08;0.90;;;0.90;;
41480;SDS011;27217;51.220;5.308;2023-04-24T09:03:34;0.10;;;0.10;;
41480;SDS011;27217;51.220;5.308;2023-04-24T09:06:01;0.00;;;0.00;;
41480;SDS011;27217;51.220;5.308;2023-04-24T09:08:27;0.10;;;0.10;;
41480;SDS011;27217;51.220;5.308;2023-04-24T09:10:54;0.20;;;0.20;;
41480;SDS011;27217;51.220;5.308;2023-04-24T09:13:23;0.10;;;0.10;;
41480;SDS011;27217;51.220;5.308;2023-04-24T09:15:49;0.20;;;0.20;;
41480;SDS011;27217;51.220;5.308;2023-04-24T09:18:15;0.80;;;0.80;;
41480;SDS011;27217;51.220;5.308;2023-04-24T09:21:00;0.32;;;0.32;;
41480;SDS011;27217;51.220;5.308;2023-04-24T09:23:31;0.30;;;0.30;;
41480;SDS011;27217;51.220;5.308;2023-04-24T09:25:57;0.10;;;0.10;;
41480;SDS011;27217;51.220;5.308;2023-04-24T09:28:25;0.10;;;0.10;;
41480;SDS011;27217;51.220;5.308;2023-04-24T09:31:05;0.03;;;0.03;;
41480;SDS011;27217;51.220;5.308;2023-04-24T09:33:33;0.85;;;0.85;;
41480;SDS011;27217;51.220;5.308;2023-04-24T09:35:59;0.00;;;0.00;;
41480;SDS011;27217;51.220;5.308;2023-04-24T09:38:32;0.10;;;0.10;;
41480;SDS011;27217;51.220;5.308;2023-04-24T09:41:02;2.63;;;2.20;;
41480;SDS011;27217;51.220;5.308;2023-04-24T09:43:31;0.30;;;0.30;;
41480;SDS011;27217;51.220;5.308;2023-04-24T09:45:58;0.10;;;0.10;;
41480;SDS011;27217;51.220;5.308;2023-04-24T09:48:32;0.03;;;0.03;;
41480;SDS011;27217;51.220;5.308;2023-04-24T09:51:00;0.00;;;0.00;;
41480;SDS011;27217;51.220;5.308;2023-04-24T09:53:29;0.80;;;0.80;;
41480;SDS011;27217;51.220;5.308;2023-04-24T09:55:56;0.10;;;0.10;;
41480;SDS011;27217;51.220;5.308;2023-04-24T09:58:28;0.03;;;0.03;;
41480;SDS011;27217;51.220;5.308;2023-04-24T10:00:55;0.43;;;0.43;;
41480;SDS011;27217;51.220;5.308;2023-04-24T10:03:25;0.10;;;0.10;;
41480;SDS011;27217;51.220;5.308;2023-04-24T10:05:52;2.60;;;1.08;;
41480;SDS011;27217;51.220;5.308;2023-04-24T10:08:18;0.30;;;0.30;;
41480;SDS011;27217;51.220;5.308;2023-04-24T10:10:45;16.75;;;2.47;;
41480;SDS011;27217;51.220;5.308;2023-04-24T10:13:12;18.30;;;1.00;;
41480;SDS011;27217;51.220;5.308;2023-04-24T10:15:40;3.85;;;1.95;;
41480;SDS011;27217;51.220;5.308;2023-04-24T10:18:07;0.00;;;0.00;;
41480;SDS011;27217;51.220;5.308;2023-04-24T10:20:35;0.00;;;0.00;;
41480;SDS011;27217;51.220;5.308;2023-04-24T10:23:02;0.00;;;0.00;;
41480;SDS011;27217;51.220;5.308;2023-04-24T10:25:30;0.10;;;0.10;;
41480;SDS011;27217;51.220;5.308;2023-04-24T10:27:57;0.47;;;0.35;;
41480;SDS011;27217;51.220;5.308;2023-04-24T10:30:28;0.00;;;0.00;;
41480;SDS011;27217;51.220;5.308;2023-04-24T10:32:55;0.00;;;0.00;;
41480;SDS011;27217;51.220;5.308;2023-04-24T10:35:21;0.17;;;0.17;;
41480;SDS011;27217;51.220;5.308;2023-04-24T10:37:54;0.47;;;0.47;;
41480;SDS011;27217;51.220;5.308;2023-04-24T10:40:30;0.22;;;0.22;;
41480;SDS011;27217;51.220;5.308;2023-04-24T10:42:58;0.45;;;0.32;;
41480;SDS011;27217;51.220;5.308;2023-04-24T10:45:24;2.20;;;0.57;;
41480;SDS011;27217;51.220;5.308;2023-04-24T10:47:56;0.05;;;0.05;;
41480;SDS011;27217;51.220;5.308;2023-04-24T10:50:23;0.43;;;0.43;;
41480;SDS011;27217;51.220;5.308;2023-04-24T10:52:50;0.00;;;0.00;;
41480;SDS011;27217;51.220;5.308;2023-04-24T10:55:39;0.30;;;0.30;;
41480;SDS011;27217;51.220;5.308;2023-04-24T10:58:10;0.57;;;0.57;;
41480;SDS011;27217;51.220;5.308;2023-04-24T11:00:37;0.00;;;0.00;;
41480;SDS011;27217;51.220;5.308;2023-04-24T11:03:05;0.00;;;0.00;;
41480;SDS011;27217;51.220;5.308;2023-04-24T11:11:16;1.75;;;0.90;;
41480;SDS011;27217;51.220;5.308;2023-04-24T11:16:21;0.00;;;0.00;;
41480;SDS011;27217;51.220;5.308;2023-04-24T11:18:50;5.53;;;1.98;;
41480;SDS011;27217;51.220;5.308;2023-04-24T11:21:30;8.05;;;2.15;;
41480;SDS011;27217;51.220;5.308;2023-04-24T11:27:12;7.32;;;1.67;;
41480;SDS011;27217;51.220;5.308;2023-04-24T11:29:49;9.93;;;2.20;;
41480;SDS011;27217;51.220;5.308;2023-04-24T11:32:27;7.47;;;1.87;;
41480;SDS011;27217;51.220;5.308;2023-04-24T11:35:00;3.38;;;1.67;;
41480;SDS011;27217;51.220;5.308;2023-04-24T11:37:29;7.95;;;3.20;;
41480;SDS011;27217;51.220;5.308;2023-04-24T11:40:01;6.60;;;1.73;;
41480;SDS011;27217;51.220;5.308;2023-04-24T11:42:27;9.93;;;1.83;;
41480;SDS011;27217;51.220;5.308;2023-04-24T11:44:54;11.23;;;2.63;;
41480;SDS011;27217;51.220;5.308;2023-04-24T11:47:27;10.88;;;2.15;;
41480;SDS011;27217;51.220;5.308;2023-04-24T11:49:54;8.00;;;2.30;;
41480;SDS011;27217;51.220;5.308;2023-04-24T11:52:20;8.25;;;2.20;;
41480;SDS011;27217;51.220;5.308;2023-04-24T11:54:49;11.77;;;1.67;;
41480;SDS011;27217;51.220;5.308;2023-04-24T11:57:15;12.48;;;2.20;;
41480;SDS011;27217;51.220;5.308;2023-04-24T11:59:41;13.73;;;1.98;;
41480;SDS011;27217;51.220;5.308;2023-04-24T12:02:07;6.85;;;2.10;;
41480;SDS011;27217;51.220;5.308;2023-04-24T12:04:39;4.65;;;1.25;;
41480;SDS011;27217;51.220;5.308;2023-04-24T12:07:06;6.35;;;2.50;;
41480;SDS011;27217;51.220;5.308;2023-04-24T12:12:31;9.85;;;1.40;;
41480;SDS011;27217;51.220;5.308;2023-04-24T12:14:57;9.30;;;2.15;;
41480;SDS011;27217;51.220;5.308;2023-04-24T12:17:28;5.05;;;1.48;;
41480;SDS011;27217;51.220;5.308;2023-04-24T12:20:01;7.45;;;2.22;;
41480;SDS011;27217;51.220;5.308;2023-04-24T12:25:18;6.97;;;1.55;;
41480;SDS011;27217;51.220;5.308;2023-04-24T12:27:46;16.73;;;2.35;;
41480;SDS011;27217;51.220;5.308;2023-04-24T12:30:20;5.28;;;1.77;;
41480;SDS011;27217;51.220;5.308;2023-04-24T12:32:47;6.13;;;1.77;;
41480;SDS011;27217;51.220;5.308;2023-04-24T12:35:19;6.13;;;1.90;;
41480;SDS011;27217;51.220;5.308;2023-04-24T12:37:46;3.70;;;1.70;;
41480;SDS011;27217;51.220;5.308;2023-04-24T12:40:12;5.93;;;2.67;;
41480;SDS011;27217;51.220;5.308;2023-04-24T12:42:42;4.05;;;1.88;;
41480;SDS011;27217;51.220;5.308;2023-04-24T12:45:13;12.13;;;1.98;;
41480;SDS011;27217;51.220;5.308;2023-04-24T12:47:43;6.43;;;1.55;;
41480;SDS011;27217;51.220;5.308;2023-04-24T12:50:13;10.32;;;1.52;;
41480;SDS011;27217;51.220;5.308;2023-04-24T12:52:43;4.03;;;1.42;;
41480;SDS011;27217;51.220;5.308;2023-04-24T12:55:09;3.10;;;1.63;;
41480;SDS011;27217;51.220;5.308;2023-04-24T12:57:37;3.78;;;1.48;;
41480;SDS011;27217;51.220;5.308;2023-04-24T13:00:06;4.97;;;1.52;;
41480;SDS011;27217;51.220;5.308;2023-04-24T13:02:33;4.13;;;1.20;;
41480;SDS011;27217;51.220;5.308;2023-04-24T13:04:59;3.78;;;1.10;;
41480;SDS011;27217;51.220;5.308;2023-04-24T13:07:25;3.65;;;1.50;;
41480;SDS011;27217;51.220;5.308;2023-04-24T13:09:52;8.52;;;1.90;;
41480;SDS011;27217;51.220;5.308;2023-04-24T13:12:19;7.07;;;1.65;;
41480;SDS011;27217;51.220;5.308;2023-04-24T13:14:45;11.50;;;1.20;;
41480;SDS011;27217;51.220;5.308;2023-04-24T13:17:12;2.70;;;1.20;;
41480;SDS011;27217;51.220;5.308;2023-04-24T13:19:38;8.75;;;1.67;;
41480;SDS011;27217;51.220;5.308;2023-04-24T13:22:05;4.45;;;1.15;;
41480;SDS011;27217;51.220;5.308;2023-04-24T13:24:32;3.78;;;1.67;;
41480;SDS011;27217;51.220;5.308;2023-04-24T13:26:58;4.50;;;1.30;;
41480;SDS011;27217;51.220;5.308;2023-04-24T13:29:25;4.78;;;1.33;;
41480;SDS011;27217;51.220;5.308;2023-04-24T13:31:51;6.53;;;1.27;;
41480;SDS011;27217;51.220;5.308;2023-04-24T13:34:19;3.63;;;1.20;;
41480;SDS011;27217;51.220;5.308;2023-04-24T13:36:46;3.33;;;1.27;;
41480;SDS011;27217;51.220;5.308;2023-04-24T13:39:11;6.25;;;1.98;;
41480;SDS011;27217;51.220;5.308;2023-04-24T13:41:37;5.53;;;1.50;;
41480;SDS011;27217;51.220;5.308;2023-04-24T13:44:06;4.25;;;1.13;;
41480;SDS011;27217;51.220;5.308;2023-04-24T13:46:32;4.22;;;1.20;;
41480;SDS011;27217;51.220;5.308;2023-04-24T13:48:59;5.75;;;1.50;;
41480;SDS011;27217;51.220;5.308;2023-04-24T13:51:25;3.10;;;1.67;;
41480;SDS011;27217;51.220;5.308;2023-04-24T13:53:58;1.95;;;1.05;;
41480;SDS011;27217;51.220;5.308;2023-04-24T13:56:24;7.00;;;1.27;;
41480;SDS011;27217;51.220;5.308;2023-04-24T13:58:51;6.80;;;1.77;;
41480;SDS011;27217;51.220;5.308;2023-04-24T14:01:18;5.13;;;1.40;;
41480;SDS011;27217;51.220;5.308;2023-04-24T14:03:44;5.55;;;2.05;;
41480;SDS011;27217;51.220;5.308;2023-04-24T14:06:10;10.77;;;2.05;;
41480;SDS011;27217;51.220;5.308;2023-04-24T14:08:37;9.65;;;1.60;;
41480;SDS011;27217;51.220;5.308;2023-04-24T14:11:02;3.97;;;2.05;;
41480;SDS011;27217;51.220;5.308;2023-04-24T14:13:29;5.43;;;1.65;;
41480;SDS011;27217;51.220;5.308;2023-04-24T14:15:55;2.90;;;1.58;;
41480;SDS011;27217;51.220;5.308;2023-04-24T14:18:21;4.60;;;1.42;;
41480;SDS011;27217;51.220;5.308;2023-04-24T14:20:46;6.47;;;1.70;;
41480;SDS011;27217;51.220;5.308;2023-04-24T14:23:12;4.05;;;1.83;;
41480;SDS011;27217;51.220;5.308;2023-04-24T14:25:38;4.03;;;1.73;;
41480;SDS011;27217;51.220;5.308;2023-04-24T14:28:03;5.05;;;1.38;;
41480;SDS011;27217;51.220;5.308;2023-04-24T14:30:31;5.30;;;1.70;;
41480;SDS011;27217;51.220;5.308;2023-04-24T14:32:57;5.45;;;1.50;;
41480;SDS011;27217;51.220;5.308;2023-04-24T14:35:23;4.78;;;1.38;;
41480;SDS011;27217;51.220;5.308;2023-04-24T14:37:48;3.67;;;1.77;;
41480;SDS011;27217;51.220;5.308;2023-04-24T14:40:14;5.13;;;1.30;;
41480;SDS011;27217;51.220;5.308;2023-04-24T14:42:40;4.10;;;1.75;;
41480;SDS011;27217;51.220;5.308;2023-04-24T14:45:06;3.05;;;1.60;;
41480;SDS011;27217;51.220;5.308;2023-04-24T14:47:34;3.58;;;1.55;;
41480;SDS011;27217;51.220;5.308;2023-04-24T14:49:59;3.80;;;1.10;;
41480;SDS011;27217;51.220;5.308;2023-04-24T14:52:25;5.82;;;1.67;;
41480;SDS011;27217;51.220;5.308;2023-04-24T14:54:51;2.85;;;1.52;;
41480;SDS011;27217;51.220;5.308;2023-04-24T14:57:16;9.10;;;2.92;;
41480;SDS011;27217;51.220;5.308;2023-04-24T14:59:42;5.28;;;1.90;;
41480;SDS011;27217;51.220;5.308;2023-04-24T15:02:08;7.50;;;1.52;;
41480;SDS011;27217;51.220;5.308;2023-04-24T15:04:33;5.72;;;1.52;;